Latest Coastal Weather Observations for Townsville

IDQ60701

Issued at 6:31 am EST Tuesday 15 October 2019 (issued every 10 minutes, with the page automatically refreshed every 10 minutes)

About coastal observations | Map of coastal stations | Coastal observations for QLD | Marine services | Other Formats
Station Details ID: 032040 Name: TOWNSVILLE AERO Lat: -19.25 Lon: 146.77 Height: 4.34 m
Data from the previous 72 hours. | See also: Recent months at Townsville
Date/Time
EST
Wind Sea
Height
m
Swell Vis
km
Cloud Weather Temp
°C
Press
hPa
Rain since
9am
mm
Dir  Spd
kts
Gust
kts
Height
m
Period
s
Dir
15/06:30am N 5 7 - - - - 10 Partly cloudy - 23.7 1015.4 0.0
15/06:00am N 5 7 - - - - 10 Mostly clear - 22.9 1015.1 0.0
15/05:30am N 7 8 - - - - 10 Partly cloudy - 22.9 1014.8 0.0
15/05:00am N 7 9 - - - - 10 Partly cloudy - 23.1 1014.8 0.0
15/04:30am N 8 11 - - - - 10 Partly cloudy - 23.2 1014.5 0.0
15/04:00am N 7 8 - - - - 10 Partly cloudy - 23.3 1014.5 0.0
15/03:30am N 7 10 - - - - 10 Partly cloudy - 23.2 1014.5 0.0
15/03:00am N 7 9 - - - - 10 Mostly clear - 23.2 1014.5 0.0
15/02:30am N 7 8 - - - - 10 Partly cloudy - 23.1 1014.6 0.0
15/02:00am N 9 11 - - - - 10 - - 23.3 1014.8 0.0
15/01:30am N 8 10 - - - - 10 - - 23.4 1015.3 0.0
15/01:00am N 7 8 - - - - 10 - - 22.9 1015.5 0.0
15/12:30am N 7 9 - - - - 10 Partly cloudy - 23.2 1015.9 0.0
15/12:00am N 7 9 - - - - 10 - - 23.1 1016.2 0.0
 
Date/Time
EST
Wind Sea
Height
m
Swell Vis
km
Cloud Weather Temp
°C
Press
hPa
Rain since
9am
mm
Dir  Spd
kts
Gust
kts
Height
m
Period
s
Dir
14/11:30pm N 7 9 - - - - 10 - - 23.1 1016.2 0.0
14/11:00pm N 7 8 - - - - 10 - - 23.1 1016.3 0.0
14/10:30pm N 7 8 - - - - 10 - - 23.2 1016.5 0.0
14/10:00pm N 7 8 - - - - 10 - - 23.5 1016.4 0.0
14/09:30pm N 7 8 - - - - 10 - - 23.5 1016.3 0.0
14/09:00pm N 6 7 - - - - 10 - - 23.5 1016.3 0.0
14/08:30pm N 6 7 - - - - 10 - - 23.7 1016.0 0.0
14/08:00pm N 5 6 - - - - 10 - - 23.8 1015.8 0.0
14/07:30pm N 5 7 - - - - 10 - - 24.0 1015.5 0.0
14/07:00pm N 6 7 - - - - 10 - - 23.9 1015.2 0.0
14/06:30pm N 6 8 - - - - 10 - - 24.4 1014.9 0.0
14/06:00pm N 8 10 - - - - 10 - - 25.4 1014.7 0.0
14/05:30pm NNE 8 10 - - - - 10 - - 26.2 1014.7 0.0
14/05:00pm N 8 13 - - - - 10 Mostly clear - 26.7 1014.3 0.0
14/04:30pm N 10 15 - - - - 10 Mostly clear - 27.6 1014.2 0.0
14/04:00pm NNE 13 16 - - - - 10 Mostly clear - 27.3 1014.1 0.0
14/03:30pm N 13 17 - - - - 10 Mostly clear - 27.8 1014.0 0.0
14/03:00pm N 13 19 - - - - 10 Mostly clear - 27.8 1014.2 0.0
14/02:30pm N 13 17 - - - - 10 Mostly clear - 27.9 1014.6 0.0
14/02:00pm N 12 17 - - - - 10 Mostly clear - 28.5 1014.9 0.0
14/01:30pm N 11 16 - - - - 10 Mostly clear - 28.4 1015.3 0.0
14/01:00pm NNE 12 16 - - - - 10 Partly cloudy - 28.7 1015.9 0.0
14/12:30pm NNE 13 18 - - - - 10 Partly cloudy - 28.5 1016.4 0.0
14/12:00pm NE 13 17 - - - - 10 Cloudy - 28.0 1016.7 0.0
14/11:30am NE 13 17 - - - - 10 Partly cloudy - 28.1 1017.0 0.0
14/11:00am NE 13 18 - - - - 10 Partly cloudy - 29.2 1017.1 0.0
14/10:30am NE 13 18 - - - - 10 Partly cloudy - 28.0 1017.4 0.0
14/10:00am NE 11 15 - - - - 10 Partly cloudy - 27.3 1017.5 0.0
14/09:30am NE 10 15 - - - - 10 Partly cloudy - 27.5 1017.6 0.0
14/09:00am NNE 8 11 - - - - 10 Partly cloudy - 28.0 1017.6 0.0
14/08:30am NNE 9 11 - - - - 10 Partly cloudy - 27.3 1017.5 0.0
14/08:00am NE 9 12 - - - - 10 Partly cloudy - 26.7 1017.3 0.0
14/07:30am NNE 9 13 - - - - 10 Mostly clear - 26.2 1017.0 0.0
14/07:00am N 9 12 - - - - 10 Mostly clear - 25.7 1016.6 0.0
14/06:30am N 5 6 - - - - 10 Partly cloudy - 24.3 1016.2 0.0
14/06:00am N 5 7 - - - - 10 Mostly clear - 23.5 1015.8 0.0
14/05:30am N 6 7 - - - - 10 - - 23.2 1015.4 0.0
14/05:00am N 7 9 - - - - 10 - - 23.7 1015.2 0.0
14/04:30am N 8 9 - - - - 10 - - 24.0 1015.1 0.0
14/04:00am N 5 6 - - - - 10 Partly cloudy - 23.8 1015.2 0.0
14/03:30am N 6 8 - - - - 10 - - 23.9 1015.0 0.0
14/03:00am NNE 9 10 - - - - 10 Mostly clear - 24.1 1015.0 0.0
14/02:30am NNE 8 10 - - - - 10 Partly cloudy - 23.8 1014.9 0.0
14/02:00am NE 8 9 - - - - 10 - - 23.0 1015.1 0.0
14/01:30am NNE 7 9 - - - - 10 - - 23.6 1015.5 0.0
14/01:00am NE 5 6 - - - - 10 Partly cloudy - 22.7 1015.8 0.0
14/12:30am NNE 5 6 - - - - 10 Partly cloudy - 23.5 1016.0 0.0
14/12:00am NE 8 12 - - - - 10 - - 23.3 1016.0 0.0
 
Date/Time
EST
Wind Sea
Height
m
Swell Vis
km
Cloud Weather Temp
°C
Press
hPa
Rain since
9am
mm
Dir  Spd
kts
Gust
kts
Height
m
Period
s
Dir
13/11:30pm NE 7 8 - - - - 10 - - 23.1 1016.1 0.0
13/11:00pm NE 6 7 - - - - 10 - - 22.6 1016.0 0.0
13/10:30pm NNE 6 7 - - - - 10 - - 23.0 1015.9 0.0
13/10:00pm NNE 5 6 - - - - 10 - - 23.4 1015.7 0.0
13/09:30pm N 7 8 - - - - 10 - - 24.3 1015.4 0.0
13/09:00pm N 6 8 - - - - 10 - - 24.3 1015.0 0.0
13/08:30pm N 6 7 - - - - 10 - - 24.4 1014.7 0.0
13/08:00pm N 5 7 - - - - 10 - - 24.1 1014.3 0.0
13/07:30pm N 3 4 - - - - 10 - - 23.9 1014.0 0.0
13/07:00pm NNW 5 6 - - - - 10 - - 24.6 1013.7 0.0
13/06:30pm NNW 6 8 - - - - 10 - - 25.1 1013.3 0.0
13/06:00pm NNW 7 9 - - - - 10 - - 26.0 1013.0 0.0
13/05:30pm N 9 12 - - - - 10 - - 27.0 1012.7 0.0
13/05:00pm N 8 15 - - - - 10 - - 28.3 1012.3 0.0
13/04:30pm NNE 8 11 - - - - 10 - - 29.6 1012.2 0.0
13/04:00pm NE 9 13 - - - - 10 - - 30.4 1012.2 0.0
13/03:30pm N 11 17 - - - - 10 - - 29.7 1012.3 0.0
13/03:00pm NNE 11 15 - - - - 10 - - 30.8 1012.7 0.0
13/02:30pm N 11 16 - - - - 10 - - 29.7 1013.0 0.0
13/02:00pm N 13 17 - - - - 10 - - 30.0 1013.4 0.0
13/01:30pm N 11 16 - - - - 10 - - 29.8 1013.6 0.0
13/01:00pm N 10 15 - - - - 10 - - 29.3 1014.0 0.0
13/12:30pm NNW 9 14 - - - - 10 - - 30.0 1014.3 0.0
13/12:00pm NNE 11 16 - - - - 10 - - 29.1 1014.8 0.0
13/11:30am NNE 9 16 - - - - 10 Partly cloudy - 29.6 1015.6 0.0
13/11:00am NNW 7 12 - - - - 10 Partly cloudy - 30.0 1015.8 0.0
13/10:30am N 7 12 - - - - 10 Partly cloudy - 28.1 1016.2 0.0
13/10:00am NNW 9 16 - - - - 10 Partly cloudy - 27.4 1016.2 0.0
13/09:30am NNW 9 15 - - - - 10 Partly cloudy - 27.6 1016.4 0.0
13/09:00am NNW 9 14 - - - - 10 Cloudy - 27.4 1016.4 0.0
13/08:30am N 5 7 - - - - 10 Partly cloudy - 26.3 1016.3 0.0
13/08:00am WNW 3 5 - - - - 10 Partly cloudy - 25.7 1016.3 0.0
13/07:30am CALM 0 0 - - - - 10 - - 24.2 1015.9 0.0
13/07:00am CALM 0 1 - - - - 10 - - 22.0 1015.4 0.0
13/06:30am NW 2 4 - - - - 10 - - 19.8 1014.9 0.0
13/06:00am N 2 4 - - - - 10 Cloudy - 19.5 1014.6 0.0
13/05:30am WSW 3 5 - - - - 10 Partly cloudy - 19.2 1014.0 0.0
13/05:00am CALM 0 1 - - - - 10 Partly cloudy - 19.2 1013.7 0.0
13/04:30am NW 1 4 - - - - 10 - - 18.7 1013.4 0.0
13/04:00am NW 1 3 - - - - 10 - - 19.8 1012.9 0.0
13/03:30am CALM 0 0 - - - - 10 - - 20.7 1012.7 0.0
13/03:00am SSE 4 4 - - - - 10 Partly cloudy - 20.7 1012.6 0.0
13/02:30am SE 3 4 - - - - 10 Cloudy - 22.1 1012.6 0.0
13/02:00am SSW 4 4 - - - - 10 Partly cloudy - 22.7 1012.7 0.0
13/01:30am CALM 0 0 - - - - 10 Partly cloudy - 21.4 1012.7 0.0
13/01:00am CALM 0 0 - - - - 10 Partly cloudy - 21.8 1012.7 0.0
13/12:30am SW 4 5 - - - - 10 - - 22.3 1012.6 0.0
13/12:00am N 3 5 - - - - 10 Mostly clear - 22.0 1012.6 0.0
 
Date/Time
EST
Wind Sea
Height
m
Swell Vis
km
Cloud Weather Temp
°C
Press
hPa
Rain since
9am
mm
Dir  Spd
kts
Gust
kts
Height
m
Period
s
Dir
12/11:30pm CALM 0 0 - - - - 10 Partly cloudy - 22.1 1012.9 0.0
12/11:00pm CALM 0 0 - - - - 10 Partly cloudy - 22.1 1012.9 0.0
12/10:30pm CALM 0 0 - - - - 10 Partly cloudy - 22.2 1013.0 0.0
12/10:00pm CALM 0 0 - - - - 10 - - 22.0 1012.7 0.0
12/09:30pm N 3 4 - - - - 10 - - 23.1 1012.5 0.0
12/09:00pm N 5 6 - - - - 10 - - 23.8 1012.2 0.0
12/08:30pm NNE 5 6 - - - - 10 - - 23.0 1011.9 0.0
12/08:00pm N 5 6 - - - - 10 - - 24.0 1011.5 0.0
12/07:30pm N 7 10 - - - - 10 - - 24.2 1010.9 0.0
12/07:00pm NNW 6 9 - - - - 10 - - 24.2 1010.4 0.0
12/06:30pm NNW 6 8 - - - - 10 - - 24.6 1009.9 0.0
12/06:00pm N 7 10 - - - - 10 - - 25.4 1009.3 0.0
12/05:30pm N 9 12 - - - - 10 - - 26.5 1008.9 0.0
12/05:00pm NNW 9 13 - - - - 10 - - 26.9 1008.5 0.0
12/04:30pm N 11 16 - - - - 10 - - 27.4 1008.0 0.0
12/04:00pm N 12 15 - - - - 10 - - 27.7 1007.8 0.0
12/03:30pm N 13 17 - - - - 10 - - 28.9 1007.8 0.0
12/03:00pm N 14 18 - - - - 10 - - 28.6 1007.7 0.0
12/02:30pm NNW 13 17 - - - - 10 - - 29.7 1008.0 0.0
12/02:00pm N 11 16 - - - - 10 - - 30.5 1008.2 0.0
12/01:30pm N 11 15 - - - - 10 - - 30.7 1008.7 0.0
12/01:00pm N 10 13 - - - - 10 - - 31.0 1009.2 0.0
12/12:30pm N 8 12 - - - - 10 - - 31.0 1009.8 0.0
12/12:00pm N 8 13 - - - - 10 - - 30.6 1010.4 0.0
12/11:30am N 11 16 - - - - 10 - - 29.5 1011.0 0.0
12/11:00am NNW 8 15 - - - - 10 - - 30.4 1011.5 0.0
12/10:30am NW 8 13 - - - - 10 Partly cloudy - 28.4 1011.9 0.0
12/10:00am NNW 7 12 - - - - 10 Partly cloudy - 27.9 1012.2 0.0
12/09:30am N 5 10 - - - - 10 - - 28.3 1012.3 0.0
12/09:00am NW 9 13 - - - - 10 - - 27.7 1012.4 0.0
12/08:30am NNW 9 12 - - - - 10 - - 26.9 1012.6 0.0
12/08:00am WNW 6 8 - - - - 10 - - 25.8 1012.6 0.0
12/07:30am CALM 0 0 - - - - 10 - - 24.8 1012.5 0.0
12/07:00am CALM 0 2 - - - - 10 - - 22.6 1012.3 0.0

Other formats

Comma delimited format used in spreadsheet applications
http://www.bom.gov.au/fwo/IDQ60701/IDQ60701.94294.axf

JavaScript Object Notation format (JSON) in row-major order
http://www.bom.gov.au/fwo/IDQ60701/IDQ60701.94294.json

Data quality

Most of these data are generated automatically and are frequently updated. Quality checks on data are not normally performed. It is possible for incorrect values to appear. Refer to information at About Latest Weather Observations and please check the disclaimer before using these data.